Time;durP1;ratioP1;P1;durP2;ratioP2;P2;SDS_P1;SDS_P2;PMS_P1;PMS_P2;Temp;Humidity;BMP_temperature;BMP_pressure;BME280_temperature;BME280_humidity;BME280_pressure;Samples;Min_cycle;Max_cycle;Signal;HPM_P1;HPM_P2
2023/04/28 00:01:37;;;;;;;2.63;2.43;;;;;;;8.12;59.74;101110.91;5034574;28;20235;-81
2023/04/28 00:04:04;;;;;;;2.60;2.40;;;;;;;8.14;60.02;101106.56;5034659;28;20219;-83
2023/04/28 00:06:36;;;;;;;2.80;2.50;;;;;;;8.21;60.76;101097.06;5034581;28;20588;-81
2023/04/28 00:09:05;;;;;;;4.00;2.47;;;;;;;8.22;61.99;101088.38;5034607;28;20230;-80
2023/04/28 00:11:33;;;;;;;2.47;2.27;;;;;;;8.20;62.98;101056.31;5034922;28;20229;-79
2023/04/28 00:13:59;;;;;;;3.07;2.67;;;;;;;8.21;64.13;101013.84;5036115;28;20213;-80
2023/04/28 00:16:25;;;;;;;2.30;2.10;;;;;;;8.17;64.43;100986.97;5038515;28;20215;-79
2023/04/28 00:18:56;;;;;;;4.00;2.70;;;;;;;8.16;64.69;100954.03;5037901;28;20290;-80
2023/04/28 00:21:27;;;;;;;2.90;2.03;;;;;;;8.11;64.88;100924.56;5037761;28;20250;-82
2023/04/28 00:23:58;;;;;;;2.50;2.30;;;;;;;8.11;65.23;100909.84;5038403;28;20650;-80
2023/04/28 00:26:30;;;;;;;3.23;2.50;;;;;;;8.12;64.92;100905.50;5038281;28;20312;-80
2023/04/28 00:28:59;;;;;;;2.50;2.30;;;;;;;8.10;64.82;100897.69;5038430;28;20666;-81
2023/04/28 00:31:25;;;;;;;2.90;2.50;;;;;;;8.10;65.02;100886.44;5037557;28;20224;-80
2023/04/28 00:33:53;;;;;;;3.13;2.23;;;;;;;8.06;65.06;100880.34;5037694;28;20213;-79
2023/04/28 00:36:19;;;;;;;4.17;2.60;;;;;;;8.07;65.36;100871.72;5036983;28;20550;-81
2023/04/28 00:38:51;;;;;;;2.47;2.27;;;;;;;8.10;65.81;100869.09;5037185;28;20233;-81
2023/04/28 00:41:24;;;;;;;3.13;2.37;;;;;;;8.02;66.88;100857.84;5037381;28;20209;-81
2023/04/28 00:43:56;;;;;;;3.47;2.47;;;;;;;8.01;66.56;100853.53;5037616;28;20207;-82
2023/04/28 00:46:25;;;;;;;3.20;3.00;;;;;;;8.04;66.14;100843.09;5037455;28;20206;-81
2023/04/28 00:48:52;;;;;;;2.83;2.40;;;;;;;7.98;66.03;100845.72;5037571;28;20229;-81
2023/04/28 00:51:20;;;;;;;3.40;3.10;;;;;;;7.94;65.79;100842.25;5037798;28;20229;-81
2023/04/28 00:53:46;;;;;;;7.17;2.20;;;;;;;7.99;65.34;100857.84;5037899;28;20232;-80
2023/04/28 00:56:15;;;;;;;3.63;3.33;;;;;;;7.92;66.23;100863.91;5037964;28;20212;-81
2023/04/28 00:58:43;;;;;;;3.10;2.80;;;;;;;7.90;67.21;100844.88;5037612;28;20713;-81
2023/04/28 01:01:10;;;;;;;3.00;2.80;;;;;;;7.88;67.99;100821.47;5037284;28;20234;-81
2023/04/28 01:03:38;;;;;;;2.97;2.67;;;;;;;7.83;68.36;100796.34;5037712;28;20280;-80
2023/04/28 01:06:06;;;;;;;3.67;2.80;;;;;;;7.83;67.80;100789.44;5037555;28;20205;-82
2023/04/28 01:08:35;;;;;;;3.30;2.93;;;;;;;7.78;68.16;100785.13;5036685;28;20756;-81
2023/04/28 01:11:02;;;;;;;3.30;3.00;;;;;;;7.76;68.62;100764.31;5036728;28;20233;-81
2023/04/28 01:13:28;;;;;;;2.93;2.73;;;;;;;7.79;69.41;100753.03;5037480;28;20198;-80
2023/04/28 01:15:55;;;;;;;3.20;2.90;;;;;;;7.74;69.71;100748.72;5037272;28;20707;-81
2023/04/28 01:18:25;;;;;;;3.77;2.67;;;;;;;7.72;69.41;100726.22;5037480;28;20233;-79
2023/04/28 01:20:55;;;;;;;3.93;2.77;;;;;;;7.72;68.95;100727.09;5037314;28;20216;-81
2023/04/28 01:23:21;;;;;;;3.53;3.00;;;;;;;7.75;68.35;100723.63;5036966;28;20208;-78
2023/04/28 01:25:49;;;;;;;4.27;3.33;;;;;;;7.72;68.77;100731.41;5037513;28;20211;-79
2023/04/28 01:28:18;;;;;;;2.97;2.33;;;;;;;7.73;69.04;100735.72;5036532;28;20648;-81
2023/04/28 01:30:44;;;;;;;3.53;2.80;;;;;;;7.70;69.87;100739.22;5036822;28;20255;-80
2023/04/28 01:33:11;;;;;;;3.87;3.10;;;;;;;7.68;68.94;100732.31;5037233;28;20223;-79
2023/04/28 01:35:37;;;;;;;3.50;3.20;;;;;;;7.68;69.86;100722.75;5037177;28;20733;-81
2023/04/28 01:38:05;;;;;;;4.00;3.07;;;;;;;7.73;69.01;100727.94;5035816;28;20418;-82
2023/04/28 01:40:33;;;;;;;6.60;3.87;;;;;;;7.73;68.00;100731.44;5036874;28;20692;-81
2023/04/28 01:43:01;;;;;;;4.20;2.97;;;;;;;7.74;68.31;100755.66;5036664;28;20201;-80
2023/04/28 01:45:27;;;;;;;5.27;2.93;;;;;;;7.79;69.30;100743.53;5037041;28;20791;-80
2023/04/28 01:47:56;;;;;;;3.80;3.50;;;;;;;7.82;68.56;100737.47;5036933;28;20234;-82
2023/04/28 01:50:23;;;;;;;3.20;2.90;;;;;;;7.81;68.79;100746.13;5036635;28;20276;-82
2023/04/28 01:52:50;;;;;;;3.30;3.10;;;;;;;7.76;69.01;100748.72;5036654;28;20582;-80
2023/04/28 01:55:16;;;;;;;4.13;3.00;;;;;;;7.71;70.28;100732.28;5036849;28;20233;-81
2023/04/28 01:57:45;;;;;;;3.80;3.40;;;;;;;7.69;70.38;100718.44;5036575;28;20652;-83
2023/04/28 02:00:15;;;;;;;3.87;3.57;;;;;;;7.65;70.26;100702.00;5036615;28;20203;-82
2023/04/28 02:02:41;;;;;;;5.20;3.80;;;;;;;7.60;71.49;100674.31;5036527;28;20210;-80
2023/04/28 02:05:08;;;;;;;4.23;3.80;;;;;;;7.61;70.00;100670.81;5036857;28;20286;-80
2023/04/28 02:07:35;;;;;;;4.30;3.73;;;;;;;7.60;68.41;100701.13;5035759;28;20732;-81
2023/04/28 02:10:01;;;;;;;3.90;3.40;;;;;;;7.59;68.89;100699.44;5036697;28;20267;-80
2023/04/28 02:12:27;;;;;;;4.17;3.83;;;;;;;7.64;68.07;100720.19;5036579;28;20199;-81
2023/04/28 02:14:56;;;;;;;3.73;3.33;;;;;;;7.52;68.67;100724.53;5036196;28;20216;-82
2023/04/28 02:17:25;;;;;;;3.83;3.47;;;;;;;7.49;68.32;100731.47;5036136;28;20264;-80
2023/04/28 02:19:55;;;;;;;5.13;3.60;;;;;;;7.44;68.59;100725.44;5035976;28;20220;-82
2023/04/28 02:22:21;;;;;;;3.30;3.10;;;;;;;7.46;68.42;100736.69;5036217;28;20202;-82
2023/04/28 02:24:47;;;;;;;3.77;3.47;;;;;;;7.46;69.01;100734.94;5036597;28;20205;-80
2023/04/28 02:27:14;;;;;;;3.53;3.30;;;;;;;7.47;68.80;100725.41;5035890;28;20631;-81
2023/04/28 02:29:40;;;;;;;3.13;2.87;;;;;;;7.40;69.52;100719.38;5035985;28;20737;-80
2023/04/28 02:32:07;;;;;;;4.37;3.33;;;;;;;7.44;69.46;100707.25;5035912;28;20230;-81
2023/04/28 02:34:35;;;;;;;3.47;3.17;;;;;;;7.39;70.21;100693.38;5036048;28;20219;-82
2023/04/28 02:37:05;;;;;;;3.87;3.10;;;;;;;7.36;70.19;100673.50;5034084;28;20254;-82
2023/04/28 02:39:32;;;;;;;3.97;3.40;;;;;;;7.30;70.63;100663.13;5035396;28;20276;-80
2023/04/28 02:41:58;;;;;;;3.63;3.40;;;;;;;7.29;70.28;100648.41;5035624;28;20206;-81
2023/04/28 02:44:25;;;;;;;3.30;3.00;;;;;;;7.30;71.56;100631.97;5035671;28;20210;-81
2023/04/28 02:46:52;;;;;;;3.77;3.40;;;;;;;7.35;71.84;100615.50;5035903;28;20567;-81
2023/04/28 02:49:19;;;;;;;3.60;3.37;;;;;;;7.33;72.06;100614.66;5035539;28;20263;-82
2023/04/28 02:51:46;;;;;;;3.43;3.13;;;;;;;7.25;72.88;100607.72;5034929;28;20229;-80
2023/04/28 02:54:12;;;;;;;5.63;3.97;;;;;;;7.25;72.56;100594.75;5035563;28;20259;-81
2023/04/28 02:56:39;;;;;;;3.40;3.10;;;;;;;7.16;72.37;100588.72;5035244;28;20205;-80
2023/04/28 02:59:06;;;;;;;3.83;3.30;;;;;;;7.12;71.19;100589.59;5035320;28;20232;-80
2023/04/28 03:01:35;;;;;;;3.13;2.90;;;;;;;7.09;72.23;100593.94;5035327;28;20235;-80
2023/04/28 03:04:03;;;;;;;2.97;2.77;;;;;;;7.10;71.67;100598.25;5035546;28;20216;-81
2023/04/28 03:06:30;;;;;;;3.37;3.03;;;;;;;7.01;71.61;100601.72;5035603;28;20210;-80
2023/04/28 03:08:58;;;;;;;3.60;3.30;;;;;;;7.06;70.69;100600.00;5035144;28;20228;-79
2023/04/28 03:11:24;;;;;;;3.90;3.50;;;;;;;7.09;70.60;100610.34;5035377;28;20232;-81
2023/04/28 03:13:52;;;;;;;3.50;3.10;;;;;;;6.96;70.31;100627.69;5035199;28;20292;-81
2023/04/28 03:16:18;;;;;;;3.53;3.10;;;;;;;6.82;71.04;100632.03;5035291;28;20250;-82
2023/04/28 03:18:45;;;;;;;3.37;3.07;;;;;;;6.82;71.27;100624.25;5035411;28;20289;-81
2023/04/28 03:21:11;;;;;;;3.40;3.10;;;;;;;6.76;71.30;100614.75;5035427;28;20683;-81
2023/04/28 03:23:37;;;;;;;4.37;3.73;;;;;;;6.78;71.61;100609.56;5035533;28;20233;-82
2023/04/28 03:26:05;;;;;;;3.83;3.53;;;;;;;6.80;72.11;100604.34;5035347;28;20224;-80
2023/04/28 03:28:32;;;;;;;3.63;3.30;;;;;;;6.80;71.71;100594.84;5034516;28;20651;-82
2023/04/28 03:31:04;;;;;;;3.93;3.30;;;;;;;6.80;72.10;100575.81;5035034;28;20587;-81
2023/04/28 03:33:36;;;;;;;3.67;3.37;;;;;;;6.86;71.97;100578.41;5035775;28;20241;-82
2023/04/28 03:36:03;;;;;;;3.90;3.60;;;;;;;6.74;71.96;100567.19;5035138;28;20203;-80
2023/04/28 03:38:29;;;;;;;3.80;3.50;;;;;;;6.67;72.41;100567.19;5034903;28;20298;-82
2023/04/28 03:40:56;;;;;;;4.27;3.83;;;;;;;6.56;71.89;100572.34;5035653;28;20214;-82
2023/04/28 03:43:23;;;;;;;4.27;3.63;;;;;;;6.59;72.24;100569.78;5035182;28;20205;-81
2023/04/28 03:45:50;;;;;;;5.13;4.00;;;;;;;6.48;71.99;100572.38;5034723;28;20674;-82
2023/04/28 03:48:16;;;;;;;7.30;3.93;;;;;;;6.53;71.86;100559.41;5035962;28;20254;-80
2023/04/28 03:50:44;;;;;;;5.03;3.90;;;;;;;6.54;71.89;100566.31;5038954;28;20224;-82
2023/04/28 03:53:14;;;;;;;4.10;3.67;;;;;;;6.60;72.13;100555.97;5039249;28;20208;-81
2023/04/28 03:55:44;;;;;;;3.80;3.40;;;;;;;6.63;71.89;100566.31;5039038;28;20206;-82
2023/04/28 03:58:10;;;;;;;4.47;3.97;;;;;;;6.67;71.26;100565.44;5039143;28;20294;-80
2023/04/28 04:00:38;;;;;;;4.73;3.53;;;;;;;6.68;71.77;100571.50;5038516;28;20262;-82
2023/04/28 04:03:04;;;;;;;4.67;4.33;;;;;;;6.63;71.58;100563.72;5038786;28;20243;-83
2023/04/28 04:05:34;;;;;;;4.87;4.20;;;;;;;6.57;70.90;100574.97;5038858;28;20678;-83
2023/04/28 04:08:01;;;;;;;4.43;4.07;;;;;;;6.50;71.61;100580.16;5040874;28;20278;-84
2023/04/28 04:10:27;;;;;;;4.50;4.10;;;;;;;6.54;71.49;100580.16;5046243;28;20204;-83
2023/04/28 04:12:53;;;;;;;5.63;4.73;;;;;;;6.49;70.88;100584.47;5046513;28;20269;-83
2023/04/28 04:15:22;;;;;;;4.87;4.57;;;;;;;6.51;71.22;100585.34;5046931;28;20213;-83
2023/04/28 04:17:50;;;;;;;5.30;4.10;;;;;;;6.48;72.01;100577.56;5045141;28;20332;-80
2023/04/28 04:20:16;;;;;;;4.37;4.07;;;;;;;6.53;72.33;100564.59;5039748;28;20217;-78
2023/04/28 04:22:43;;;;;;;4.83;4.43;;;;;;;6.55;71.46;100552.50;5039387;28;20259;-81
2023/04/28 04:25:09;;;;;;;5.20;4.80;;;;;;;6.53;72.49;100565.47;5039610;28;20210;-80
2023/04/28 04:27:36;;;;;;;5.07;4.67;;;;;;;6.59;72.66;100554.22;5039263;28;20231;-81
2023/04/28 04:30:02;;;;;;;4.70;4.30;;;;;;;6.65;73.37;100536.06;5038831;28;20281;-82
2023/04/28 04:32:29;;;;;;;7.67;4.97;;;;;;;6.73;72.32;100505.78;5038561;28;20639;-82
2023/04/28 04:34:56;;;;;;;4.80;4.43;;;;;;;6.79;70.82;100543.81;5036208;28;20206;-81
2023/04/28 04:37:23;;;;;;;5.43;5.03;;;;;;;6.84;69.48;100560.25;5037642;28;20216;-82
2023/04/28 04:39:51;;;;;;;5.37;4.27;;;;;;;6.86;69.82;100587.06;5055931;22;20295;-77
2023/04/28 04:42:17;;;;;;;7.07;4.67;;;;;;;6.91;69.04;100600.00;5035702;28;20256;-78
2023/04/28 04:44:44;;;;;;;5.20;4.30;;;;;;;6.97;69.25;100623.34;5035816;28;20209;-78
2023/04/28 04:47:10;;;;;;;6.60;4.70;;;;;;;7.01;68.68;100629.41;5035929;28;20266;-78
2023/04/28 04:49:36;;;;;;;5.10;4.00;;;;;;;7.02;68.56;100657.13;5035796;28;20358;-77
2023/04/28 04:52:05;;;;;;;5.90;4.63;;;;;;;7.08;70.35;100657.97;5035989;28;20228;-78
2023/04/28 04:54:32;;;;;;;6.50;4.33;;;;;;;7.16;66.56;100655.34;5035403;28;20300;-79
2023/04/28 04:56:58;;;;;;;5.37;4.53;;;;;;;7.23;66.42;100689.94;5035507;28;20754;-79
2023/04/28 04:59:24;;;;;;;4.83;4.43;;;;;;;7.28;66.78;100721.97;5034561;28;20229;-79
2023/04/28 05:01:51;;;;;;;4.50;4.10;;;;;;;7.30;66.47;100722.84;5035502;28;20280;-78
2023/04/28 05:04:17;;;;;;;5.77;4.70;;;;;;;7.33;65.55;100741.00;5035498;28;20222;-78
2023/04/28 05:06:44;;;;;;;6.77;4.30;;;;;;;7.34;65.52;100776.50;5035474;28;20231;-78
2023/04/28 05:09:11;;;;;;;5.80;4.37;;;;;;;7.36;66.30;100764.38;5034866;28;20616;-77
2023/04/28 05:11:40;;;;;;;4.77;4.37;;;;;;;7.41;66.98;100761.78;5038053;28;20638;-78
2023/04/28 05:14:06;;;;;;;5.40;4.73;;;;;;;7.41;67.28;100741.00;5035210;28;20239;-78
2023/04/28 05:16:33;;;;;;;5.20;4.23;;;;;;;7.44;65.46;100744.47;5035375;28;20231;-80
2023/04/28 05:18:59;;;;;;;6.27;4.43;;;;;;;7.50;65.78;100757.44;5034707;28;20258;-79
2023/04/28 05:21:27;;;;;;;10.90;4.40;;;;;;;7.54;65.50;100753.13;5034490;28;20255;-79
2023/04/28 05:23:53;;;;;;;6.13;4.53;;;;;;;7.60;65.38;100744.44;5034374;28;20208;-77
2023/04/28 05:26:21;;;;;;;6.07;5.07;;;;;;;7.63;66.49;100754.81;5034159;28;20205;-80
2023/04/28 05:28:49;;;;;;;5.20;4.60;;;;;;;7.68;64.38;100753.94;5034327;28;20236;-78
2023/04/28 05:31:16;;;;;;;7.93;4.50;;;;;;;7.71;64.46;100779.94;5034218;28;20257;-77
2023/04/28 05:33:42;;;;;;;5.93;4.97;;;;;;;7.73;64.47;100790.31;5034544;28;20203;-78
2023/04/28 05:36:09;;;;;;;6.20;5.60;;;;;;;7.78;64.48;100800.72;5034235;28;20265;-80
2023/04/28 05:38:36;;;;;;;7.23;5.40;;;;;;;7.77;64.49;100807.66;5034444;28;20241;-78
2023/04/28 05:41:02;;;;;;;7.93;4.97;;;;;;;7.84;64.73;100795.50;5037814;28;20687;-80
2023/04/28 05:43:30;;;;;;;6.13;4.93;;;;;;;7.88;64.71;100805.00;5035182;28;20204;-79
2023/04/28 05:45:56;;;;;;;9.20;5.23;;;;;;;7.93;64.51;100798.94;5034110;28;20262;-77
2023/04/28 05:48:30;;;;;;;5.27;4.87;;;;;;;7.96;63.89;100800.66;5033868;28;20207;-79
2023/04/28 05:51:03;;;;;;;8.77;5.80;;;;;;;7.91;64.31;100805.88;5033822;28;20208;-78
2023/04/28 05:53:31;;;;;;;7.93;4.83;;;;;;;7.95;63.87;100801.53;5033797;28;20212;-80
2023/04/28 05:55:57;;;;;;;5.23;4.73;;;;;;;8.02;63.58;100804.97;5034084;28;20206;-78
2023/04/28 05:58:24;;;;;;;6.73;4.73;;;;;;;8.06;63.80;100804.97;5032925;28;20741;-78
2023/04/28 06:00:52;;;;;;;11.97;6.37;;;;;;;8.10;63.91;100805.81;5033861;28;20202;-78
2023/04/28 06:03:18;;;;;;;6.13;5.27;;;;;;;8.18;63.15;100793.66;5032963;28;20191;-79
2023/04/28 06:05:45;;;;;;;7.53;5.43;;;;;;;8.20;64.32;100804.06;5033537;28;20673;-80
2023/04/28 06:08:11;;;;;;;10.07;5.10;;;;;;;8.29;63.64;100789.28;5036651;28;20214;-80
2023/04/28 06:10:37;;;;;;;5.63;5.00;;;;;;;8.34;62.92;100802.28;5036529;28;20217;-78
2023/04/28 06:13:05;;;;;;;7.50;5.70;;;;;;;8.31;64.19;100803.16;5034346;28;20571;-78
2023/04/28 06:15:31;;;;;;;9.33;5.70;;;;;;;8.37;65.69;100772.81;5032657;28;20207;-79
2023/04/28 06:18:00;;;;;;;9.87;5.50;;;;;;;8.43;63.63;100752.84;5034686;28;20644;-80
2023/04/28 06:20:26;;;;;;;8.83;5.87;;;;;;;8.47;63.48;100777.13;5034097;28;20229;-78
2023/04/28 06:22:52;;;;;;;5.53;5.03;;;;;;;8.54;63.81;100777.09;5034726;28;20210;-79
2023/04/28 06:25:19;;;;;;;6.87;5.70;;;;;;;8.63;62.63;100788.31;5036521;28;20255;-79
2023/04/28 06:27:45;;;;;;;7.00;6.00;;;;;;;8.67;62.75;100806.50;5034625;28;20212;-80
2023/04/28 06:30:18;;;;;;;6.20;5.63;;;;;;;8.76;63.52;100803.00;5033109;28;20275;-81
2023/04/28 06:32:44;;;;;;;10.00;6.27;;;;;;;8.85;62.52;100791.66;5034551;28;20256;-79
2023/04/28 06:35:12;;;;;;;9.67;5.27;;;;;;;8.93;62.21;100803.72;5035926;28;20210;-79
2023/04/28 06:37:38;;;;;;;6.23;5.17;;;;;;;9.00;62.26;100833.22;5036371;28;20574;-79
2023/04/28 06:40:06;;;;;;;7.03;5.70;;;;;;;9.07;62.32;100832.28;5036749;28;20236;-80
2023/04/28 06:42:32;;;;;;;6.90;5.53;;;;;;;9.12;61.81;100840.09;5038322;28;20205;-81
2023/04/28 06:44:59;;;;;;;8.27;5.93;;;;;;;9.18;61.88;100845.25;5036979;28;20683;-80
2023/04/28 06:47:25;;;;;;;6.03;5.53;;;;;;;9.26;61.65;100855.63;5034647;28;20695;-80
2023/04/28 06:49:52;;;;;;;9.03;5.80;;;;;;;9.31;62.33;100856.44;5032221;28;20603;-80
2023/04/28 06:52:21;;;;;;;6.83;5.93;;;;;;;9.39;60.96;100859.00;5040757;28;20708;-80
2023/04/28 06:54:47;;;;;;;6.60;5.90;;;;;;;9.45;60.62;100875.44;5037109;28;20229;-78
2023/04/28 06:57:14;;;;;;;8.37;6.17;;;;;;;9.48;60.79;100885.00;5036159;28;20220;-79
2023/04/28 06:59:42;;;;;;;7.13;6.50;;;;;;;9.58;61.04;100883.19;5043650;28;20228;-79
2023/04/28 07:02:09;;;;;;;7.90;6.00;;;;;;;9.66;61.08;100884.84;5045035;28;20202;-81
2023/04/28 07:04:35;;;;;;;7.37;6.67;;;;;;;9.73;60.45;100877.84;5039615;28;20225;-80
2023/04/28 07:07:06;;;;;;;7.27;6.07;;;;;;;9.73;59.82;100883.94;5038129;28;20258;-79
2023/04/28 07:09:34;;;;;;;9.97;6.00;;;;;;;9.83;59.32;100895.16;5038148;28;20224;-81
2023/04/28 07:12:00;;;;;;;6.70;6.00;;;;;;;9.89;59.00;100904.63;5035666;28;20719;-79
2023/04/28 07:14:36;;;;;;;7.87;6.10;;;;;;;9.96;58.70;100913.28;5042505;28;20265;-81
2023/04/28 07:17:03;;;;;;;6.37;5.87;;;;;;;10.00;59.39;100921.06;5045028;28;20280;-80
2023/04/28 07:19:40;;;;;;;6.43;5.93;;;;;;;10.03;59.43;100921.06;5041762;28;20237;-80
2023/04/28 07:22:06;;;;;;;6.87;6.17;;;;;;;10.08;59.30;100915.78;5049052;28;20216;-80
2023/04/28 07:24:34;;;;;;;6.10;5.60;;;;;;;10.16;59.46;100915.72;5049635;28;20213;-80
2023/04/28 07:27:03;;;;;;;6.77;5.97;;;;;;;10.23;59.42;100915.66;5046868;28;20216;-81
2023/04/28 07:29:32;;;;;;;7.13;6.43;;;;;;;10.30;60.04;100908.63;5047160;28;20715;-80
2023/04/28 07:32:26;;;;;;;9.27;6.80;;;;;;;10.41;60.07;100898.97;5050012;28;20226;-80
2023/04/28 07:34:52;;;;;;;6.43;5.83;;;;;;;10.47;58.66;100898.91;5044876;28;20209;-81
2023/04/28 07:37:20;;;;;;;6.60;6.00;;;;;;;10.53;58.83;100913.63;5050475;28;20217;-80
2023/04/28 07:39:47;;;;;;;6.03;5.47;;;;;;;10.59;60.10;100915.31;5048000;28;20237;-81
2023/04/28 07:42:17;;;;;;;6.63;6.13;;;;;;;10.66;58.98;100899.56;5046154;28;20342;-82
2023/04/28 07:44:47;;;;;;;6.10;5.50;;;;;;;10.80;59.64;100888.06;5050814;28;20209;-81
2023/04/28 07:47:13;;;;;;;8.80;6.10;;;;;;;10.87;58.37;100893.19;5049772;28;20260;-81
2023/04/28 07:49:40;;;;;;;6.33;5.73;;;;;;;10.96;56.96;100910.50;5042891;28;20720;-79
2023/04/28 07:52:10;;;;;;;6.40;5.80;;;;;;;11.03;55.85;100937.41;5048054;28;20262;-81
2023/04/28 07:54:36;;;;;;;7.07;6.27;;;;;;;11.09;55.27;100966.06;5048732;28;20273;-81
2023/04/28 07:57:05;;;;;;;5.80;5.30;;;;;;;11.14;55.35;100993.00;5047641;28;20202;-82
2023/04/28 07:59:31;;;;;;;9.83;5.87;;;;;;;11.19;55.98;101013.84;5051328;28;20226;-81
2023/04/28 08:01:58;;;;;;;6.57;5.97;;;;;;;11.28;55.71;101008.50;5049196;28;20205;-79
2023/04/28 08:04:24;;;;;;;6.37;5.83;;;;;;;11.36;55.84;101003.16;5044246;28;20202;-81
2023/04/28 08:06:51;;;;;;;6.30;5.70;;;;;;;11.39;56.23;101017.06;5038932;28;20202;-80
2023/04/28 08:09:18;;;;;;;7.13;6.43;;;;;;;11.49;58.48;101000.34;5039389;28;20226;-83
2023/04/28 08:11:44;;;;;;;6.97;6.23;;;;;;;11.65;58.37;100950.47;5035633;28;20210;-81
2023/04/28 08:14:12;;;;;;;7.50;6.90;;;;;;;11.77;58.95;100916.28;5036302;28;20619;-79
2023/04/28 08:16:40;;;;;;;7.07;6.47;;;;;;;11.90;55.86;100910.00;5038158;28;20205;-80
2023/04/28 08:19:14;;;;;;;7.63;6.80;;;;;;;11.96;55.08;100953.50;5038010;28;20240;-80
2023/04/28 08:21:41;;;;;;;6.97;6.37;;;;;;;11.98;55.71;100972.66;5037084;28;20206;-80
2023/04/28 08:24:09;;;;;;;8.37;7.03;;;;;;;12.04;54.95;100982.16;5037233;28;20563;-79
2023/04/28 08:26:36;;;;;;;7.60;6.80;;;;;;;12.06;54.46;101007.41;5039197;28;20585;-80
2023/04/28 08:29:02;;;;;;;8.53;6.60;;;;;;;12.07;54.90;101021.34;5038281;28;20303;-80
2023/04/28 08:31:30;;;;;;;6.63;6.07;;;;;;;12.10;55.08;101022.16;5039037;28;20214;-80
2023/04/28 08:33:56;;;;;;;7.30;6.70;;;;;;;12.05;57.16;101034.47;5038043;28;20233;-80
2023/04/28 08:36:24;;;;;;;7.00;6.43;;;;;;;12.16;57.47;100971.50;5036764;28;20206;-79
2023/04/28 08:38:50;;;;;;;7.40;6.27;;;;;;;12.26;56.32;100959.09;5036904;28;20257;-79
2023/04/28 08:41:18;;;;;;;6.77;6.27;;;;;;;12.40;59.18;100940.53;5037014;28;20210;-80
2023/04/28 08:43:55;;;;;;;7.53;6.83;;;;;;;12.49;57.93;100867.91;5033528;28;20198;-79
2023/04/28 08:46:22;;;;;;;8.87;6.53;;;;;;;12.58;58.22;100915.75;5037144;28;20817;-81
2023/04/28 08:48:51;;;;;;;7.73;6.60;;;;;;;12.63;59.07;100916.53;5037011;28;20249;-81
2023/04/28 08:51:27;;;;;;;7.30;6.60;;;;;;;12.73;59.13;100872.69;5037362;28;20710;-81
2023/04/28 08:53:55;;;;;;;8.33;7.57;;;;;;;12.74;56.19;100893.59;5037391;28;20230;-80
2023/04/28 08:56:24;;;;;;;7.87;7.07;;;;;;;12.76;55.04;100919.75;5036792;28;20271;-80
2023/04/28 08:58:53;;;;;;;7.47;6.77;;;;;;;12.84;54.57;100944.03;5036919;28;20223;-80
2023/04/28 09:01:19;;;;;;;7.60;6.83;;;;;;;12.85;54.35;100959.75;5037953;28;20240;-80
2023/04/28 09:03:46;;;;;;;7.90;6.83;;;;;;;12.90;54.98;100971.00;5036076;28;20204;-79
2023/04/28 09:06:14;;;;;;;6.60;6.10;;;;;;;13.01;55.91;100968.16;5034759;28;20838;-78
2023/04/28 09:08:40;;;;;;;7.30;6.63;;;;;;;13.14;55.57;100965.28;5037568;28;20214;-82
2023/04/28 09:11:08;;;;;;;7.77;7.10;;;;;;;13.23;59.32;100968.56;5036062;28;20656;-79
2023/04/28 09:13:35;;;;;;;7.20;6.50;;;;;;;13.28;54.77;100923.91;5035457;28;20344;-79
2023/04/28 09:16:02;;;;;;;7.40;6.90;;;;;;;13.28;55.19;100953.63;5035669;28;20204;-78
2023/04/28 09:18:31;;;;;;;8.27;7.47;;;;;;;13.29;54.94;100957.97;5034835;28;20199;-79
2023/04/28 09:21:04;;;;;;;7.83;7.13;;;;;;;13.26;55.94;100978.13;5032209;28;20280;-79
2023/04/28 09:23:32;;;;;;;8.13;7.30;;;;;;;13.26;59.20;100904.69;5034812;28;20744;-78
2023/04/28 09:26:00;;;;;;;7.63;6.93;;;;;;;13.35;56.87;100862.59;5031560;28;20199;-78
2023/04/28 09:28:27;;;;;;;7.43;6.83;;;;;;;13.38;55.06;100874.75;5033816;28;20792;-79
2023/04/28 09:30:54;;;;;;;7.67;6.97;;;;;;;13.36;55.20;100902.78;5035842;28;20204;-80
2023/04/28 09:33:21;;;;;;;7.87;7.17;;;;;;;13.31;56.04;100903.75;5036927;28;20292;-80
2023/04/28 09:35:47;;;;;;;8.77;8.03;;;;;;;13.39;55.55;100900.09;5036309;28;20206;-82
2023/04/28 09:38:14;;;;;;;7.77;7.13;;;;;;;13.49;54.86;100904.22;5034495;28;20206;-81
2023/04/28 09:40:54;;;;;;;7.20;6.60;;;;;;;13.56;55.56;100931.16;5033221;28;20214;-81
2023/04/28 09:43:29;;;;;;;7.23;6.60;;;;;;;13.60;54.18;100919.72;5034232;28;20216;-80
2023/04/28 09:45:56;;;;;;;7.67;7.07;;;;;;;13.68;54.02;100936.13;5033930;28;20214;-79
2023/04/28 09:48:33;;;;;;;7.07;6.43;;;;;;;13.76;54.53;100942.06;5034672;28;20810;-79
2023/04/28 09:51:01;;;;;;;7.57;6.97;;;;;;;13.81;56.49;100926.19;5032426;28;20228;-80
2023/04/28 09:53:29;;;;;;;7.77;7.17;;;;;;;13.90;56.39;100899.72;5034319;28;20257;-78
2023/04/28 09:55:58;;;;;;;7.57;6.93;;;;;;;14.00;55.34;100882.84;4339609;28;10000685;-80
2023/04/28 09:58:26;;;;;;;7.30;6.70;;;;;;;14.07;54.51;100881.78;5034422;28;20198;-80
2023/04/28 10:00:53;;;;;;;7.70;7.00;;;;;;;14.02;56.64;100895.94;5032529;28;20608;-79
2023/04/28 10:03:25;;;;;;;7.77;6.97;;;;;;;14.06;55.92;100872.19;5034633;28;20208;-78
2023/04/28 10:05:52;;;;;;;7.90;7.10;;;;;;;13.95;54.61;100884.72;5040639;28;20314;-78
2023/04/28 10:08:20;;;;;;;10.73;6.90;;;;;;;14.04;55.18;100908.13;5041167;28;20288;-79
2023/04/28 10:10:48;;;;;;;8.53;7.73;;;;;;;14.07;53.97;100899.28;5038868;28;20694;-78
2023/04/28 10:13:18;;;;;;;7.77;7.07;;;;;;;14.02;53.67;100932.69;5041070;28;20429;-78
2023/04/28 10:15:44;;;;;;;7.13;6.53;;;;;;;14.01;54.83;100946.69;5042574;28;20207;-80
2023/04/28 10:18:12;;;;;;;7.23;6.53;;;;;;;13.93;56.58;100939.00;5042866;28;20214;-79
2023/04/28 10:20:39;;;;;;;7.23;6.63;;;;;;;13.96;55.11;100917.09;5041744;28;20587;-79
2023/04/28 10:23:25;;;;;;;6.83;6.33;;;;;;;13.96;55.01;100911.84;5034845;28;20205;-78
2023/04/28 10:25:56;;;;;;;8.13;6.40;;;;;;;13.95;56.08;100915.34;5034393;28;20210;-78
2023/04/28 10:28:23;;;;;;;7.73;6.87;;;;;;;13.84;58.22;100887.63;5031815;28;20219;-79
2023/04/28 10:31:11;;;;;;;6.70;6.10;;;;;;;13.86;59.77;100828.09;5030345;28;20797;-79
2023/04/28 10:33:38;;;;;;;7.30;6.30;;;;;;;13.88;59.83;100779.06;5033526;28;20289;-79
2023/04/28 10:36:06;;;;;;;7.60;6.73;;;;;;;13.86;57.50;100743.25;5033177;28;20207;-81
2023/04/28 10:38:32;;;;;;;9.60;7.03;;;;;;;13.83;56.13;100780.94;5031053;28;20585;-79
2023/04/28 10:41:00;;;;;;;7.67;7.00;;;;;;;13.80;56.15;100820.38;5031536;28;20210;-81
2023/04/28 10:43:38;;;;;;;8.13;5.87;;;;;;;13.69;58.00;100828.50;5031889;28;20260;-81
2023/04/28 10:46:13;;;;;;;7.07;6.33;;;;;;;13.65;58.44;100799.78;5033619;28;20217;-81
2023/04/28 10:48:56;;;;;;;7.90;7.10;;;;;;;13.56;56.29;100774.66;5032279;28;20653;-80
2023/04/28 10:51:33;;;;;;;9.57;6.70;;;;;;;13.44;56.46;100794.19;5032699;28;20235;-80
2023/04/28 10:54:09;;;;;;;7.37;6.83;;;;;;;13.58;57.94;100811.34;5033404;28;20243;-80
2023/04/28 10:56:35;;;;;;;7.13;6.43;;;;;;;13.60;60.59;100760.56;5032561;28;20198;-82
2023/04/28 10:59:27;;;;;;;6.57;5.97;;;;;;;13.73;59.58;100719.13;5033771;28;20986;-81
2023/04/28 11:01:53;;;;;;;7.67;7.07;;;;;;;13.82;57.67;100731.13;5032150;28;20607;-80
2023/04/28 11:04:28;;;;;;;10.00;8.87;;;;;;;13.94;59.23;100750.94;5031841;28;20233;-81
2023/04/28 11:07:13;;;;;;;9.63;8.73;;;;;;;14.04;62.73;100729.63;5030655;28;20202;-81
2023/04/28 11:09:48;;;;;;;8.93;8.23;;;;;;;14.08;62.56;100639.38;5034150;28;20697;-81
2023/04/28 11:12:15;;;;;;;9.23;8.60;;;;;;;14.12;64.09;100603.38;5035463;28;20889;-82
2023/04/28 11:14:42;;;;;;;10.83;9.80;;;;;;;14.24;64.80;100554.88;5036455;28;20261;-81
2023/04/28 11:17:12;;;;;;;9.97;9.17;;;;;;;14.35;61.82;100537.03;5038349;28;20336;-83
2023/04/28 11:19:41;;;;;;;10.30;9.53;;;;;;;14.56;61.14;100556.47;5038196;28;20284;-80
2023/04/28 11:22:14;;;;;;;10.40;9.57;;;;;;;14.81;60.88;100581.94;5039990;28;20650;-81
2023/04/28 11:24:41;;;;;;;9.33;8.63;;;;;;;14.97;60.06;100611.19;5039274;28;20202;-81
2023/04/28 11:27:07;;;;;;;10.47;9.67;;;;;;;15.07;60.36;100633.63;5039140;28;20203;-80
2023/04/28 11:29:35;;;;;;;11.10;9.47;;;;;;;15.10;59.81;100641.38;5037174;28;20333;-81
2023/04/28 11:32:03;;;;;;;10.07;8.67;;;;;;;15.09;57.40;100668.59;5038503;28;20203;-82
2023/04/28 11:34:30;;;;;;;9.63;8.73;;;;;;;15.05;56.73;100714.31;5038588;28;20227;-82